Leesburg, Florida
Current Conditions -  °F | °C
As of 1:53 AM on Friday 28 Nov 2014 (Local Time) from KLEE Reporting Station
Clear Clear  
Wind Chill: 40°   Ceiling: Unl
Heat Index: 45°   Visibility: 10mi
Dew Point: 35°   Wind: 10mph
Humidity: 68%   Direction: 360°N
Pressure: 30.31"   Gusts: NA
Location:  28.81°N, 81.88°W
Report Text: KLEE 280653Z AUTO 36009KT 10SM CLR 07/02 A3031 RMK AO2 SLP264 T00720017
Loading
Personal Weather Stations






























Interactive Weather Map New forecast layout! Learn more

10-Day Weather Forecast

Advertisements
Track Severe Weather on mobile